sensor_id;sensor_type;location;lat;lon;timestamp;temperature;humidity
19110;DHT22;9687;50.836;12.060;2022-07-29T00:08:42;24.50;43.40
19110;DHT22;9687;50.836;12.060;2022-07-29T00:11:09;24.50;43.40
19110;DHT22;9687;50.836;12.060;2022-07-29T00:13:37;24.50;43.50
19110;DHT22;9687;50.836;12.060;2022-07-29T00:16:05;24.50;43.50
19110;DHT22;9687;50.836;12.060;2022-07-29T00:18:32;24.50;43.60
19110;DHT22;9687;50.836;12.060;2022-07-29T00:21:00;24.50;43.70
19110;DHT22;9687;50.836;12.060;2022-07-29T00:23:27;24.50;43.80
19110;DHT22;9687;50.836;12.060;2022-07-29T00:25:56;24.50;43.80
19110;DHT22;9687;50.836;12.060;2022-07-29T00:28:24;24.50;43.80
19110;DHT22;9687;50.836;12.060;2022-07-29T00:30:51;24.50;43.90
19110;DHT22;9687;50.836;12.060;2022-07-29T00:33:19;24.50;43.90
19110;DHT22;9687;50.836;12.060;2022-07-29T00:35:49;24.50;44.00
19110;DHT22;9687;50.836;12.060;2022-07-29T00:38:18;24.50;44.10
19110;DHT22;9687;50.836;12.060;2022-07-29T00:40:46;24.50;44.20
19110;DHT22;9687;50.836;12.060;2022-07-29T00:43:16;24.40;44.30
19110;DHT22;9687;50.836;12.060;2022-07-29T00:45:44;24.40;44.20
19110;DHT22;9687;50.836;12.060;2022-07-29T00:48:12;24.40;44.30
19110;DHT22;9687;50.836;12.060;2022-07-29T00:50:40;24.40;44.50
19110;DHT22;9687;50.836;12.060;2022-07-29T00:53:07;24.40;44.60
19110;DHT22;9687;50.836;12.060;2022-07-29T00:55:35;24.30;43.90
19110;DHT22;9687;50.836;12.060;2022-07-29T00:58:05;24.30;44.50
19110;DHT22;9687;50.836;12.060;2022-07-29T01:00:34;24.30;44.50
19110;DHT22;9687;50.836;12.060;2022-07-29T01:03:03;24.30;44.50
19110;DHT22;9687;50.836;12.060;2022-07-29T01:05:31;24.20;44.50
19110;DHT22;9687;50.836;12.060;2022-07-29T01:07:59;24.10;44.60
19110;DHT22;9687;50.836;12.060;2022-07-29T01:10:28;24.20;44.70
19110;DHT22;9687;50.836;12.060;2022-07-29T01:12:58;24.20;44.90
19110;DHT22;9687;50.836;12.060;2022-07-29T01:15:26;24.20;44.90
19110;DHT22;9687;50.836;12.060;2022-07-29T01:18:01;24.20;45.10
19110;DHT22;9687;50.836;12.060;2022-07-29T01:20:37;24.10;45.10
19110;DHT22;9687;50.836;12.060;2022-07-29T01:23:30;24.10;45.00
19110;DHT22;9687;50.836;12.060;2022-07-29T01:26:28;24.10;45.60
19110;DHT22;9687;50.836;12.060;2022-07-29T01:29:03;24.10;45.00
19110;DHT22;9687;50.836;12.060;2022-07-29T01:31:39;24.10;45.10
19110;DHT22;9687;50.836;12.060;2022-07-29T01:34:14;24.00;45.10
19110;DHT22;9687;50.836;12.060;2022-07-29T01:36:48;24.10;45.20
19110;DHT22;9687;50.836;12.060;2022-07-29T01:39:19;24.00;45.20
19110;DHT22;9687;50.836;12.060;2022-07-29T01:41:50;24.00;45.30
19110;DHT22;9687;50.836;12.060;2022-07-29T01:44:30;23.90;45.20
19110;DHT22;9687;50.836;12.060;2022-07-29T01:47:06;24.00;45.40
19110;DHT22;9687;50.836;12.060;2022-07-29T01:49:41;23.90;45.50
19110;DHT22;9687;50.836;12.060;2022-07-29T01:52:15;23.90;45.50
19110;DHT22;9687;50.836;12.060;2022-07-29T01:54:45;23.90;45.70
19110;DHT22;9687;50.836;12.060;2022-07-29T01:57:15;23.90;45.70
19110;DHT22;9687;50.836;12.060;2022-07-29T01:59:47;23.80;45.60
19110;DHT22;9687;50.836;12.060;2022-07-29T02:02:17;23.80;45.70
19110;DHT22;9687;50.836;12.060;2022-07-29T02:04:46;23.80;45.80
19110;DHT22;9687;50.836;12.060;2022-07-29T02:07:18;23.80;45.80
19110;DHT22;9687;50.836;12.060;2022-07-29T03:08:37;23.20;48.20
19110;DHT22;9687;50.836;12.060;2022-07-29T03:11:05;23.20;48.30
19110;DHT22;9687;50.836;12.060;2022-07-29T03:13:32;23.20;48.40
19110;DHT22;9687;50.836;12.060;2022-07-29T03:16:00;23.20;48.50
19110;DHT22;9687;50.836;12.060;2022-07-29T03:18:29;23.20;48.40
19110;DHT22;9687;50.836;12.060;2022-07-29T03:20:57;23.20;48.50
19110;DHT22;9687;50.836;12.060;2022-07-29T03:23:25;23.10;48.50
19110;DHT22;9687;50.836;12.060;2022-07-29T03:25:55;23.10;48.60
19110;DHT22;9687;50.836;12.060;2022-07-29T03:28:23;23.10;48.70
19110;DHT22;9687;50.836;12.060;2022-07-29T03:30:53;23.10;48.80
19110;DHT22;9687;50.836;12.060;2022-07-29T03:33:20;23.00;48.90
19110;DHT22;9687;50.836;12.060;2022-07-29T03:35:48;23.10;49.10
19110;DHT22;9687;50.836;12.060;2022-07-29T03:38:15;23.10;49.10
19110;DHT22;9687;50.836;12.060;2022-07-29T03:40:48;23.00;49.00
19110;DHT22;9687;50.836;12.060;2022-07-29T03:43:18;23.00;49.00
19110;DHT22;9687;50.836;12.060;2022-07-29T03:45:50;23.00;49.00
19110;DHT22;9687;50.836;12.060;2022-07-29T03:48:21;22.90;48.90
19110;DHT22;9687;50.836;12.060;2022-07-29T03:50:50;22.90;48.90
19110;DHT22;9687;50.836;12.060;2022-07-29T03:53:20;22.90;49.20
19110;DHT22;9687;50.836;12.060;2022-07-29T03:55:52;22.80;49.40
19110;DHT22;9687;50.836;12.060;2022-07-29T03:58:23;22.80;49.40
19110;DHT22;9687;50.836;12.060;2022-07-29T04:00:54;22.70;49.30
19110;DHT22;9687;50.836;12.060;2022-07-29T04:03:22;22.80;49.60
19110;DHT22;9687;50.836;12.060;2022-07-29T04:05:58;22.70;49.70
19110;DHT22;9687;50.836;12.060;2022-07-29T04:08:26;22.70;49.80
19110;DHT22;9687;50.836;12.060;2022-07-29T04:10:53;22.70;49.80
19110;DHT22;9687;50.836;12.060;2022-07-29T04:13:22;22.70;49.90
19110;DHT22;9687;50.836;12.060;2022-07-29T04:15:50;22.70;50.00
19110;DHT22;9687;50.836;12.060;2022-07-29T04:18:18;22.70;50.00
19110;DHT22;9687;50.836;12.060;2022-07-29T04:20:45;22.70;50.00
19110;DHT22;9687;50.836;12.060;2022-07-29T04:23:13;22.70;50.20
19110;DHT22;9687;50.836;12.060;2022-07-29T04:25:40;22.70;50.20
19110;DHT22;9687;50.836;12.060;2022-07-29T04:28:09;22.70;50.40
19110;DHT22;9687;50.836;12.060;2022-07-29T04:30:38;22.70;50.50
19110;DHT22;9687;50.836;12.060;2022-07-29T04:33:07;22.70;50.60
19110;DHT22;9687;50.836;12.060;2022-07-29T04:35:35;22.70;50.50
19110;DHT22;9687;50.836;12.060;2022-07-29T04:38:04;22.70;50.60
19110;DHT22;9687;50.836;12.060;2022-07-29T04:40:32;22.70;50.60
19110;DHT22;9687;50.836;12.060;2022-07-29T04:43:00;22.60;50.60
19110;DHT22;9687;50.836;12.060;2022-07-29T04:45:27;22.60;50.60
19110;DHT22;9687;50.836;12.060;2022-07-29T04:47:57;22.60;50.60
19110;DHT22;9687;50.836;12.060;2022-07-29T04:50:24;22.60;50.70
19110;DHT22;9687;50.836;12.060;2022-07-29T04:52:52;22.60;50.90
19110;DHT22;9687;50.836;12.060;2022-07-29T04:55:19;22.60;51.00
19110;DHT22;9687;50.836;12.060;2022-07-29T04:57:47;22.60;51.10
19110;DHT22;9687;50.836;12.060;2022-07-29T05:00:15;22.60;51.20
19110;DHT22;9687;50.836;12.060;2022-07-29T05:02:42;22.60;51.20
19110;DHT22;9687;50.836;12.060;2022-07-29T05:05:11;22.50;51.20
19110;DHT22;9687;50.836;12.060;2022-07-29T05:07:38;22.60;51.50
19110;DHT22;9687;50.836;12.060;2022-07-29T05:10:07;22.50;51.30
19110;DHT22;9687;50.836;12.060;2022-07-29T05:12:35;22.60;51.40
19110;DHT22;9687;50.836;12.060;2022-07-29T05:15:03;22.50;51.50
19110;DHT22;9687;50.836;12.060;2022-07-29T05:17:31;22.50;51.70
19110;DHT22;9687;50.836;12.060;2022-07-29T05:19:58;22.50;51.70
19110;DHT22;9687;50.836;12.060;2022-07-29T05:22:27;22.50;51.60
19110;DHT22;9687;50.836;12.060;2022-07-29T05:24:55;22.50;51.60
19110;DHT22;9687;50.836;12.060;2022-07-29T05:27:22;22.50;51.60
19110;DHT22;9687;50.836;12.060;2022-07-29T05:29:50;22.50;51.50
19110;DHT22;9687;50.836;12.060;2022-07-29T05:32:17;22.60;51.50
19110;DHT22;9687;50.836;12.060;2022-07-29T05:34:44;22.60;51.50
19110;DHT22;9687;50.836;12.060;2022-07-29T05:37:12;22.60;51.50
19110;DHT22;9687;50.836;12.060;2022-07-29T05:39:41;22.60;51.50
19110;DHT22;9687;50.836;12.060;2022-07-29T05:42:09;22.60;51.50
19110;DHT22;9687;50.836;12.060;2022-07-29T05:44:37;22.60;51.50
19110;DHT22;9687;50.836;12.060;2022-07-29T05:47:05;22.60;51.60
19110;DHT22;9687;50.836;12.060;2022-07-29T05:49:33;22.70;51.70
19110;DHT22;9687;50.836;12.060;2022-07-29T05:52:01;22.70;51.60
19110;DHT22;9687;50.836;12.060;2022-07-29T05:54:28;22.80;51.50
19110;DHT22;9687;50.836;12.060;2022-07-29T05:56:57;22.80;51.40
19110;DHT22;9687;50.836;12.060;2022-07-29T05:59:25;22.90;51.40
19110;DHT22;9687;50.836;12.060;2022-07-29T06:01:52;22.90;51.40
19110;DHT22;9687;50.836;12.060;2022-07-29T06:04:20;22.90;51.50
19110;DHT22;9687;50.836;12.060;2022-07-29T06:06:48;23.00;51.60
19110;DHT22;9687;50.836;12.060;2022-07-29T07:11:27;23.80;50.70
19110;DHT22;9687;50.836;12.060;2022-07-29T07:13:58;23.90;50.80
19110;DHT22;9687;50.836;12.060;2022-07-29T07:16:26;23.90;50.80
19110;DHT22;9687;50.836;12.060;2022-07-29T07:18:54;24.00;50.90
19110;DHT22;9687;50.836;12.060;2022-07-29T07:21:21;24.00;50.80
19110;DHT22;9687;50.836;12.060;2022-07-29T07:23:49;24.00;50.80
19110;DHT22;9687;50.836;12.060;2022-07-29T07:26:16;24.00;50.80
19110;DHT22;9687;50.836;12.060;2022-07-29T07:28:45;24.10;50.70
19110;DHT22;9687;50.836;12.060;2022-07-29T07:31:12;24.20;50.70
19110;DHT22;9687;50.836;12.060;2022-07-29T07:33:40;24.20;50.00
19110;DHT22;9687;50.836;12.060;2022-07-29T07:36:08;24.30;50.40
19110;DHT22;9687;50.836;12.060;2022-07-29T07:38:35;24.30;50.30
19110;DHT22;9687;50.836;12.060;2022-07-29T07:41:03;24.40;50.40
19110;DHT22;9687;50.836;12.060;2022-07-29T07:43:30;24.50;50.40
19110;DHT22;9687;50.836;12.060;2022-07-29T07:45:59;24.60;50.20
19110;DHT22;9687;50.836;12.060;2022-07-29T07:48:29;24.60;50.10
19110;DHT22;9687;50.836;12.060;2022-07-29T07:50:57;24.80;50.20
19110;DHT22;9687;50.836;12.060;2022-07-29T07:53:25;24.90;50.20
19110;DHT22;9687;50.836;12.060;2022-07-29T07:55:52;25.00;49.80
19110;DHT22;9687;50.836;12.060;2022-07-29T07:58:19;25.10;49.60
19110;DHT22;9687;50.836;12.060;2022-07-29T08:00:47;25.20;49.50
19110;DHT22;9687;50.836;12.060;2022-07-29T08:03:16;25.30;49.50
19110;DHT22;9687;50.836;12.060;2022-07-29T08:05:44;25.50;49.20
19110;DHT22;9687;50.836;12.060;2022-07-29T08:08:15;25.60;48.90
19110;DHT22;9687;50.836;12.060;2022-07-29T08:10:49;25.80;48.30
19110;DHT22;9687;50.836;12.060;2022-07-29T08:13:24;26.00;48.10
19110;DHT22;9687;50.836;12.060;2022-07-29T08:15:54;26.10;47.80
19110;DHT22;9687;50.836;12.060;2022-07-29T08:18:29;26.40;47.70
19110;DHT22;9687;50.836;12.060;2022-07-29T08:20:58;26.70;47.50
19110;DHT22;9687;50.836;12.060;2022-07-29T08:23:27;26.90;47.00
19110;DHT22;9687;50.836;12.060;2022-07-29T08:26:02;27.10;46.60
19110;DHT22;9687;50.836;12.060;2022-07-29T08:28:29;27.30;46.40
19110;DHT22;9687;50.836;12.060;2022-07-29T08:30:57;27.40;46.20
19110;DHT22;9687;50.836;12.060;2022-07-29T08:33:25;27.50;46.00
19110;DHT22;9687;50.836;12.060;2022-07-29T08:35:54;27.60;45.80
19110;DHT22;9687;50.836;12.060;2022-07-29T08:38:23;27.70;45.80
19110;DHT22;9687;50.836;12.060;2022-07-29T08:40:53;27.80;46.00
19110;DHT22;9687;50.836;12.060;2022-07-29T08:43:21;27.80;46.10
19110;DHT22;9687;50.836;12.060;2022-07-29T08:45:50;27.90;45.80
19110;DHT22;9687;50.836;12.060;2022-07-29T08:48:21;27.90;45.70
19110;DHT22;9687;50.836;12.060;2022-07-29T08:50:55;28.10;45.60
19110;DHT22;9687;50.836;12.060;2022-07-29T08:53:25;28.30;45.70
19110;DHT22;9687;50.836;12.060;2022-07-29T08:55:54;28.50;45.60
19110;DHT22;9687;50.836;12.060;2022-07-29T08:58:23;28.90;45.10
19110;DHT22;9687;50.836;12.060;2022-07-29T09:00:53;29.40;44.30
19110;DHT22;9687;50.836;12.060;2022-07-29T09:03:24;29.60;43.70
19110;DHT22;9687;50.836;12.060;2022-07-29T09:05:54;29.90;43.40
19110;DHT22;9687;50.836;12.060;2022-07-29T09:08:36;30.00;42.80
19110;DHT22;9687;50.836;12.060;2022-07-29T09:11:06;30.20;42.70
19110;DHT22;9687;50.836;12.060;2022-07-29T10:16:32;34.40;36.60
19110;DHT22;9687;50.836;12.060;2022-07-29T10:19:00;35.50;35.60
19110;DHT22;9687;50.836;12.060;2022-07-29T10:21:29;35.80;34.40
19110;DHT22;9687;50.836;12.060;2022-07-29T10:23:59;35.90;34.50
19110;DHT22;9687;50.836;12.060;2022-07-29T10:26:27;35.90;33.80
19110;DHT22;9687;50.836;12.060;2022-07-29T10:28:55;35.90;34.00
19110;DHT22;9687;50.836;12.060;2022-07-29T10:31:29;36.00;33.90
19110;DHT22;9687;50.836;12.060;2022-07-29T10:34:04;36.10;33.90
19110;DHT22;9687;50.836;12.060;2022-07-29T10:36:45;36.50;33.80
19110;DHT22;9687;50.836;12.060;2022-07-29T10:39:24;37.20;33.10
19110;DHT22;9687;50.836;12.060;2022-07-29T10:42:06;37.80;32.60
19110;DHT22;9687;50.836;12.060;2022-07-29T10:44:40;38.50;31.80
19110;DHT22;9687;50.836;12.060;2022-07-29T10:47:19;39.20;31.10
19110;DHT22;9687;50.836;12.060;2022-07-29T10:50:04;39.70;30.40
19110;DHT22;9687;50.836;12.060;2022-07-29T10:52:54;40.30;29.90
19110;DHT22;9687;50.836;12.060;2022-07-29T10:55:33;40.80;29.50
19110;DHT22;9687;50.836;12.060;2022-07-29T10:58:13;41.10;29.40
19110;DHT22;9687;50.836;12.060;2022-07-29T11:00:42;41.50;29.00
19110;DHT22;9687;50.836;12.060;2022-07-29T11:03:10;42.00;28.90
19110;DHT22;9687;50.836;12.060;2022-07-29T11:05:59;42.60;28.50
19110;DHT22;9687;50.836;12.060;2022-07-29T11:08:26;43.10;27.90
19110;DHT22;9687;50.836;12.060;2022-07-29T12:18:21;39.00;30.30
19110;DHT22;9687;50.836;12.060;2022-07-29T12:20:56;38.50;30.70
19110;DHT22;9687;50.836;12.060;2022-07-29T13:25:34;32.40;38.30
19110;DHT22;9687;50.836;12.060;2022-07-29T13:28:06;32.30;39.30
19110;DHT22;9687;50.836;12.060;2022-07-29T13:30:34;32.00;38.90
19110;DHT22;9687;50.836;12.060;2022-07-29T13:33:03;32.00;39.50
19110;DHT22;9687;50.836;12.060;2022-07-29T13:35:31;31.90;41.70
19110;DHT22;9687;50.836;12.060;2022-07-29T13:37:58;31.60;42.50
19110;DHT22;9687;50.836;12.060;2022-07-29T13:40:25;31.40;43.60
19110;DHT22;9687;50.836;12.060;2022-07-29T13:42:56;31.20;45.60
19110;DHT22;9687;50.836;12.060;2022-07-29T13:45:24;31.00;45.80
19110;DHT22;9687;50.836;12.060;2022-07-29T13:47:51;30.80;46.50
19110;DHT22;9687;50.836;12.060;2022-07-29T13:50:20;30.60;47.20
19110;DHT22;9687;50.836;12.060;2022-07-29T13:52:51;30.50;48.40
19110;DHT22;9687;50.836;12.060;2022-07-29T13:55:19;30.40;49.30
19110;DHT22;9687;50.836;12.060;2022-07-29T13:57:46;30.20;50.00
19110;DHT22;9687;50.836;12.060;2022-07-29T14:00:16;30.00;50.60
19110;DHT22;9687;50.836;12.060;2022-07-29T14:02:45;29.90;51.20
19110;DHT22;9687;50.836;12.060;2022-07-29T14:05:12;29.80;51.90
19110;DHT22;9687;50.836;12.060;2022-07-29T14:07:39;29.60;52.50
19110;DHT22;9687;50.836;12.060;2022-07-29T14:10:08;29.50;52.80
19110;DHT22;9687;50.836;12.060;2022-07-29T14:12:35;29.40;53.50
19110;DHT22;9687;50.836;12.060;2022-07-29T14:15:04;29.30;53.90
19110;DHT22;9687;50.836;12.060;2022-07-29T14:17:33;29.10;54.40
19110;DHT22;9687;50.836;12.060;2022-07-29T14:20:00;28.90;54.90
19110;DHT22;9687;50.836;12.060;2022-07-29T14:22:28;28.80;54.90
19110;DHT22;9687;50.836;12.060;2022-07-29T14:24:56;28.60;54.90
19110;DHT22;9687;50.836;12.060;2022-07-29T14:27:23;28.50;54.90
19110;DHT22;9687;50.836;12.060;2022-07-29T14:29:51;28.30;55.10
19110;DHT22;9687;50.836;12.060;2022-07-29T14:32:18;28.20;55.10
19110;DHT22;9687;50.836;12.060;2022-07-29T14:34:48;28.10;55.50
19110;DHT22;9687;50.836;12.060;2022-07-29T14:37:16;28.00;55.80
19110;DHT22;9687;50.836;12.060;2022-07-29T14:39:43;27.90;56.20
19110;DHT22;9687;50.836;12.060;2022-07-29T14:42:10;27.70;56.50
19110;DHT22;9687;50.836;12.060;2022-07-29T14:44:39;27.60;56.60
19110;DHT22;9687;50.836;12.060;2022-07-29T14:47:09;27.50;56.80
19110;DHT22;9687;50.836;12.060;2022-07-29T14:49:36;27.40;57.20
19110;DHT22;9687;50.836;12.060;2022-07-29T14:52:05;27.20;57.90
19110;DHT22;9687;50.836;12.060;2022-07-29T14:54:33;27.00;58.00
19110;DHT22;9687;50.836;12.060;2022-07-29T14:57:00;26.80;58.30
19110;DHT22;9687;50.836;12.060;2022-07-29T14:59:28;26.70;58.50
19110;DHT22;9687;50.836;12.060;2022-07-29T15:01:55;26.70;58.90
19110;DHT22;9687;50.836;12.060;2022-07-29T15:04:24;26.60;59.10
19110;DHT22;9687;50.836;12.060;2022-07-29T15:06:55;26.60;59.30
19110;DHT22;9687;50.836;12.060;2022-07-29T15:09:25;26.60;59.10
19110;DHT22;9687;50.836;12.060;2022-07-29T15:11:52;26.60;59.70
19110;DHT22;9687;50.836;12.060;2022-07-29T15:14:20;26.70;60.10
19110;DHT22;9687;50.836;12.060;2022-07-29T15:16:50;26.70;60.80
19110;DHT22;9687;50.836;12.060;2022-07-29T15:19:19;26.70;61.20
19110;DHT22;9687;50.836;12.060;2022-07-29T15:21:47;26.80;60.80
19110;DHT22;9687;50.836;12.060;2022-07-29T15:24:19;26.90;60.90
19110;DHT22;9687;50.836;12.060;2022-07-29T17:28:59;27.70;60.80
19110;DHT22;9687;50.836;12.060;2022-07-29T17:31:28;27.60;60.90
19110;DHT22;9687;50.836;12.060;2022-07-29T17:33:59;27.60;61.10
19110;DHT22;9687;50.836;12.060;2022-07-29T17:36:31;27.60;61.50
19110;DHT22;9687;50.836;12.060;2022-07-29T17:39:01;27.50;61.80
19110;DHT22;9687;50.836;12.060;2022-07-29T17:41:32;27.60;62.10
19110;DHT22;9687;50.836;12.060;2022-07-29T17:44:02;27.50;62.00
19110;DHT22;9687;50.836;12.060;2022-07-29T17:46:32;27.50;61.80
19110;DHT22;9687;50.836;12.060;2022-07-29T17:49:02;27.40;61.30
19110;DHT22;9687;50.836;12.060;2022-07-29T17:51:33;27.40;61.30
19110;DHT22;9687;50.836;12.060;2022-07-29T17:54:02;27.30;61.00
19110;DHT22;9687;50.836;12.060;2022-07-29T17:56:33;27.30;61.00
19110;DHT22;9687;50.836;12.060;2022-07-29T17:59:04;27.30;61.20
19110;DHT22;9687;50.836;12.060;2022-07-29T18:02:13;27.30;61.20
19110;DHT22;9687;50.836;12.060;2022-07-29T18:04:42;27.20;61.50
19110;DHT22;9687;50.836;12.060;2022-07-29T18:07:12;27.10;61.90
19110;DHT22;9687;50.836;12.060;2022-07-29T18:09:41;27.00;62.70
19110;DHT22;9687;50.836;12.060;2022-07-29T18:12:09;27.00;63.40
19110;DHT22;9687;50.836;12.060;2022-07-29T18:14:40;26.90;64.00
19110;DHT22;9687;50.836;12.060;2022-07-29T18:17:08;26.90;64.20
19110;DHT22;9687;50.836;12.060;2022-07-29T18:19:39;26.80;64.70
19110;DHT22;9687;50.836;12.060;2022-07-29T18:22:10;26.80;65.00
19110;DHT22;9687;50.836;12.060;2022-07-29T18:24:38;26.80;65.30
19110;DHT22;9687;50.836;12.060;2022-07-29T19:29:03;26.10;68.90
19110;DHT22;9687;50.836;12.060;2022-07-29T19:31:31;26.00;69.30
19110;DHT22;9687;50.836;12.060;2022-07-29T19:33:59;25.90;69.10
19110;DHT22;9687;50.836;12.060;2022-07-29T19:36:26;26.20;70.70
19110;DHT22;9687;50.836;12.060;2022-07-29T19:38:53;25.70;70.70
19110;DHT22;9687;50.836;12.060;2022-07-29T19:41:22;25.60;71.30
19110;DHT22;9687;50.836;12.060;2022-07-29T19:43:49;25.50;71.00
19110;DHT22;9687;50.836;12.060;2022-07-29T19:46:18;25.50;72.10
19110;DHT22;9687;50.836;12.060;2022-07-29T19:48:49;25.50;72.30
19110;DHT22;9687;50.836;12.060;2022-07-29T19:51:34;25.40;72.50
19110;DHT22;9687;50.836;12.060;2022-07-29T19:54:03;25.40;72.70
19110;DHT22;9687;50.836;12.060;2022-07-29T19:56:34;25.30;72.80
19110;DHT22;9687;50.836;12.060;2022-07-29T19:59:07;25.30;73.10
19110;DHT22;9687;50.836;12.060;2022-07-29T20:01:37;25.20;73.50
19110;DHT22;9687;50.836;12.060;2022-07-29T20:04:08;25.10;73.80
19110;DHT22;9687;50.836;12.060;2022-07-29T20:06:35;25.10;74.00
19110;DHT22;9687;50.836;12.060;2022-07-29T20:09:04;25.10;74.00
19110;DHT22;9687;50.836;12.060;2022-07-29T20:11:32;25.10;74.10
19110;DHT22;9687;50.836;12.060;2022-07-29T20:14:06;25.10;74.30
19110;DHT22;9687;50.836;12.060;2022-07-29T20:16:44;25.10;74.20
19110;DHT22;9687;50.836;12.060;2022-07-29T20:19:13;25.20;74.00
19110;DHT22;9687;50.836;12.060;2022-07-29T20:21:44;25.20;73.70
19110;DHT22;9687;50.836;12.060;2022-07-29T20:24:13;25.20;73.50
19110;DHT22;9687;50.836;12.060;2022-07-29T21:28:11;25.00;74.40
19110;DHT22;9687;50.836;12.060;2022-07-29T21:30:55;24.90;74.30
19110;DHT22;9687;50.836;12.060;2022-07-29T21:33:24;24.80;75.30
19110;DHT22;9687;50.836;12.060;2022-07-29T21:35:51;24.70;75.90
19110;DHT22;9687;50.836;12.060;2022-07-29T21:38:19;24.60;76.30
19110;DHT22;9687;50.836;12.060;2022-07-29T21:40:48;24.60;76.00
19110;DHT22;9687;50.836;12.060;2022-07-29T21:43:17;24.50;76.50
19110;DHT22;9687;50.836;12.060;2022-07-29T21:45:45;24.50;77.10
19110;DHT22;9687;50.836;12.060;2022-07-29T21:48:15;24.40;77.80
19110;DHT22;9687;50.836;12.060;2022-07-29T21:50:52;24.40;78.60
19110;DHT22;9687;50.836;12.060;2022-07-29T21:53:20;24.50;79.40
19110;DHT22;9687;50.836;12.060;2022-07-29T21:59:09;24.40;79.00
19110;DHT22;9687;50.836;12.060;2022-07-29T22:01:36;24.40;79.30
19110;DHT22;9687;50.836;12.060;2022-07-29T22:04:03;24.40;79.30
19110;DHT22;9687;50.836;12.060;2022-07-29T22:06:32;24.30;79.00
19110;DHT22;9687;50.836;12.060;2022-07-29T22:09:16;24.30;79.10
19110;DHT22;9687;50.836;12.060;2022-07-29T22:11:43;24.30;80.00
19110;DHT22;9687;50.836;12.060;2022-07-29T22:14:14;24.20;80.20
19110;DHT22;9687;50.836;12.060;2022-07-29T22:16:44;24.20;80.60
19110;DHT22;9687;50.836;12.060;2022-07-29T22:19:12;24.20;81.00
19110;DHT22;9687;50.836;12.060;2022-07-29T22:21:39;24.20;81.10
19110;DHT22;9687;50.836;12.060;2022-07-29T22:24:08;24.20;81.20
19110;DHT22;9687;50.836;12.060;2022-07-29T22:26:37;24.20;81.20
